Time;durP1;ratioP1;P1;durP2;ratioP2;P2;SDS_P1;SDS_P2;PMS_P1;PMS_P2;Temp;Humidity;BMP_temperature;BMP_pressure;BME280_temperature;BME280_humidity;BME280_pressure;Samples;Min_cycle;Max_cycle;Signal;HPM_P1;HPM_P2
2021/05/26 00:01:38;;;;;;;0.95;0.70;;;18.10;61.20;;;;;;5026757;28;20132;-71
2021/05/26 00:04:06;;;;;;;5.13;2.05;;;18.20;60.70;;;;;;5028049;28;20095;-66
2021/05/26 00:06:33;;;;;;;1.48;0.80;;;18.20;61.30;;;;;;5028084;28;20094;-69
2021/05/26 00:09:00;;;;;;;2.08;0.80;;;18.20;60.00;;;;;;5028595;28;20045;-76
2021/05/26 00:11:27;;;;;;;1.25;0.40;;;18.20;58.60;;;;;;5028383;28;20025;-69
2021/05/26 00:13:54;;;;;;;1.00;0.68;;;18.20;56.60;;;;;;5028343;28;20029;-68
2021/05/26 00:16:22;;;;;;;1.52;0.70;;;18.40;59.00;;;;;;5028311;28;20066;-68
2021/05/26 00:18:49;;;;;;;5.88;0.93;;;18.50;58.10;;;;;;5026765;28;20054;-68
2021/05/26 00:21:17;;;;;;;1.05;0.70;;;18.50;58.80;;;;;;5028446;28;20021;-73
2021/05/26 00:23:44;;;;;;;3.05;0.65;;;18.50;58.50;;;;;;5025563;28;20052;-72
2021/05/26 00:26:11;;;;;;;5.90;5.10;;;18.60;58.50;;;;;;5028840;28;20025;-75
2021/05/26 00:28:40;;;;;;;4.47;1.20;;;18.80;57.60;;;;;;5027827;28;20781;-68
2021/05/26 00:31:09;;;;;;;3.30;1.27;;;19.00;57.30;;;;;;5026197;28;20024;-73
2021/05/26 00:33:36;;;;;;;3.13;1.00;;;19.10;57.60;;;;;;5028049;28;20045;-66
2021/05/26 00:36:04;;;;;;;2.25;0.93;;;19.10;57.20;;;;;;5028270;28;20018;-69
2021/05/26 00:38:31;;;;;;;2.55;0.88;;;19.20;57.40;;;;;;5027290;28;20033;-75
2021/05/26 00:40:58;;;;;;;1.42;0.90;;;19.20;58.20;;;;;;5030777;28;20032;-75
2021/05/26 00:43:25;;;;;;;3.25;1.85;;;19.40;56.30;;;;;;5028307;28;20021;-73
2021/05/26 00:45:52;;;;;;;1.00;0.73;;;19.40;55.50;;;;;;5029950;28;20108;-66
2021/05/26 00:48:19;;;;;;;3.22;1.95;;;19.40;55.10;;;;;;5030445;28;20029;-68
2021/05/26 00:50:46;;;;;;;2.25;0.90;;;19.40;55.90;;;;;;5031489;28;20018;-71
2021/05/26 00:53:14;;;;;;;1.05;0.70;;;19.50;55.90;;;;;;5031848;28;20064;-67
2021/05/26 00:55:43;;;;;;;1.10;0.60;;;19.70;54.60;;;;;;5032054;28;20030;-70
2021/05/26 00:58:11;;;;;;;2.28;0.90;;;19.60;54.10;;;;;;5031083;28;20041;-68
2021/05/26 01:00:40;;;;;;;1.08;0.70;;;19.80;54.80;;;;;;5027624;28;20013;-75
2021/05/26 01:03:07;;;;;;;2.72;1.15;;;19.90;53.50;;;;;;5025112;28;20171;-69
2021/05/26 01:05:35;;;;;;;2.60;0.88;;;20.00;52.70;;;;;;5035121;23;20502;-70
2021/05/26 01:08:02;;;;;;;1.02;0.70;;;20.10;52.80;;;;;;5031475;28;20029;-74
2021/05/26 01:10:31;;;;;;;1.45;1.00;;;20.10;51.60;;;;;;5031215;28;20030;-67
2021/05/26 01:12:58;;;;;;;1.10;0.57;;;20.10;52.20;;;;;;5030035;28;20053;-68
2021/05/26 01:15:25;;;;;;;2.83;0.70;;;20.10;51.80;;;;;;5027723;28;20017;-69
2021/05/26 01:17:53;;;;;;;2.33;0.93;;;20.20;51.40;;;;;;5035220;28;20398;-65
2021/05/26 01:20:28;;;;;;;3.25;1.00;;;20.20;51.40;;;;;;5030210;28;20025;-65
2021/05/26 01:22:59;;;;;;;1.70;0.90;;;20.20;51.50;;;;;;5028786;28;20033;-67
2021/05/26 01:25:26;;;;;;;3.55;0.93;;;20.30;50.70;;;;;;5028792;28;20026;-76
2021/05/26 01:27:53;;;;;;;3.72;0.95;;;20.40;49.70;;;;;;5032036;28;20159;-65
2021/05/26 01:30:21;;;;;;;3.58;1.90;;;20.20;49.30;;;;;;5030090;28;20021;-70
2021/05/26 01:32:51;;;;;;;4.32;2.28;;;20.40;50.90;;;;;;5030572;28;20389;-66
2021/05/26 01:35:19;;;;;;;4.78;2.60;;;20.50;50.50;;;;;;5029227;28;20486;-75
2021/05/26 01:37:48;;;;;;;1.33;0.82;;;20.70;49.50;;;;;;5030512;28;20026;-68
2021/05/26 01:40:18;;;;;;;2.22;0.80;;;20.70;46.30;;;;;;5030229;28;20021;-67
2021/05/26 01:42:46;;;;;;;2.15;0.63;;;20.80;47.60;;;;;;5025094;28;20425;-77
2021/05/26 01:45:15;;;;;;;2.67;1.00;;;20.60;47.70;;;;;;5027847;28;20431;-71
2021/05/26 01:47:48;;;;;;;0.65;0.47;;;20.50;48.70;;;;;;5026065;28;20037;-68
2021/05/26 01:50:21;;;;;;;2.28;0.70;;;20.70;50.20;;;;;;5027060;28;20421;-70
2021/05/26 01:53:10;;;;;;;2.17;0.80;;;20.90;48.50;;;;;;5029608;28;20029;-66
2021/05/26 01:55:39;;;;;;;0.45;0.40;;;20.90;49.10;;;;;;5029298;28;20075;-66
2021/05/26 01:58:07;;;;;;;2.40;0.63;;;20.90;46.50;;;;;;5027731;28;20103;-67
2021/05/26 02:00:34;;;;;;;3.85;0.60;;;20.80;47.20;;;;;;5026684;28;20219;-71
2021/05/26 02:03:01;;;;;;;1.23;0.60;;;20.70;47.70;;;;;;5026691;28;20077;-69
2021/05/26 02:05:28;;;;;;;2.92;0.73;;;20.70;47.30;;;;;;5026387;28;20052;-71
2021/05/26 02:07:55;;;;;;;1.77;0.65;;;20.90;47.70;;;;;;5026359;28;20022;-72
2021/05/26 02:13:08;;;;;;;0.90;0.50;;;21.20;45.90;;;;;;5026572;28;20037;-69
2021/05/26 02:15:35;;;;;;;1.13;0.60;;;21.10;45.00;;;;;;5025722;28;20128;-68
2021/05/26 02:18:02;;;;;;;0.65;0.30;;;21.10;45.80;;;;;;5025533;28;20270;-73
2021/05/26 02:20:29;;;;;;;1.08;0.40;;;21.10;45.90;;;;;;5026083;28;20768;-65
2021/05/26 02:22:56;;;;;;;1.75;0.40;;;21.10;45.20;;;;;;5024744;28;20457;-67
2021/05/26 02:25:23;;;;;;;3.10;0.47;;;21.40;43.80;;;;;;5026766;28;20786;-66
2021/05/26 02:27:50;;;;;;;1.05;0.50;;;21.50;43.60;;;;;;5025883;28;20442;-67
2021/05/26 02:30:17;;;;;;;1.90;0.63;;;21.50;43.10;;;;;;5025692;28;20037;-70
2021/05/26 02:32:44;;;;;;;1.40;0.32;;;21.40;42.80;;;;;;5026216;28;20425;-69
2021/05/26 02:35:12;;;;;;;1.40;1.10;;;21.30;41.90;;;;;;5027294;28;20454;-70
2021/05/26 02:37:39;;;;;;;2.40;1.20;;;21.20;42.10;;;;;;5027525;28;20060;-69
2021/05/26 02:40:07;;;;;;;2.38;0.45;;;21.20;43.20;;;;;;5024784;28;20037;-67
2021/05/26 02:42:34;;;;;;;2.83;0.50;;;21.40;44.00;;;;;;5028920;28;20665;-66
2021/05/26 02:45:01;;;;;;;0.63;0.30;;;21.50;43.10;;;;;;5029007;28;20124;-66
2021/05/26 02:47:28;;;;;;;1.08;0.60;;;21.70;41.40;;;;;;5033217;28;20026;-66
2021/05/26 02:49:55;;;;;;;0.52;0.30;;;21.50;40.90;;;;;;5028845;28;20104;-68
2021/05/26 02:52:22;;;;;;;0.85;0.47;;;21.60;43.00;;;;;;5026670;28;20139;-68
2021/05/26 02:54:49;;;;;;;1.33;0.57;;;21.70;41.20;;;;;;5028718;28;20029;-67
2021/05/26 02:57:20;;;;;;;2.15;0.50;;;21.70;41.00;;;;;;5030094;28;20022;-71
2021/05/26 02:59:47;;;;;;;0.22;0.22;;;21.70;42.10;;;;;;5023240;28;20063;-68
2021/05/26 03:02:14;;;;;;;2.50;0.75;;;21.80;41.40;;;;;;5031001;28;20576;-67
2021/05/26 03:04:41;;;;;;;0.70;0.32;;;21.70;40.70;;;;;;5030330;28;20060;-70
2021/05/26 03:07:08;;;;;;;0.88;0.32;;;21.60;40.70;;;;;;5029578;28;20025;-64
2021/05/26 03:09:35;;;;;;;0.65;0.30;;;21.70;41.20;;;;;;5026185;28;20064;-66
2021/05/26 03:12:02;;;;;;;1.83;0.40;;;21.80;41.30;;;;;;5027030;28;20033;-65
2021/05/26 03:14:29;;;;;;;0.30;0.30;;;21.80;39.90;;;;;;5028597;28;20056;-67
2021/05/26 03:16:56;;;;;;;0.60;0.38;;;21.90;38.80;;;;;;5027312;28;20022;-66
2021/05/26 03:19:23;;;;;;;0.98;0.30;;;21.90;39.60;;;;;;5028886;28;20541;-66
2021/05/26 03:21:50;;;;;;;0.50;0.50;;;21.90;39.50;;;;;;5033327;28;20026;-71
2021/05/26 03:24:18;;;;;;;0.50;0.30;;;22.10;39.60;;;;;;5026860;28;20041;-68
2021/05/26 03:26:45;;;;;;;0.47;0.40;;;21.90;39.10;;;;;;5029799;28;20017;-71
2021/05/26 03:29:13;;;;;;;3.03;0.35;;;21.80;38.70;;;;;;5027990;28;20029;-68
2021/05/26 03:31:40;;;;;;;0.90;0.40;;;21.90;38.20;;;;;;5028545;28;20105;-66
2021/05/26 03:34:07;;;;;;;0.40;0.20;;;21.80;38.90;;;;;;5027822;28;20030;-69
2021/05/26 03:36:37;;;;;;;0.22;0.20;;;21.80;39.50;;;;;;5028439;28;20097;-66
2021/05/26 03:39:05;;;;;;;0.55;0.30;;;21.80;37.80;;;;;;5027945;28;20025;-66
2021/05/26 03:41:32;;;;;;;0.30;0.30;;;21.80;37.80;;;;;;5026683;28;20489;-66
2021/05/26 03:43:59;;;;;;;0.30;0.30;;;21.80;37.50;;;;;;5027483;28;20083;-68
2021/05/26 03:46:26;;;;;;;1.05;0.30;;;21.70;37.60;;;;;;5027820;28;20025;-73
2021/05/26 03:48:53;;;;;;;0.57;0.25;;;21.70;38.10;;;;;;5027821;28;20433;-69
2021/05/26 03:51:20;;;;;;;0.30;0.30;;;21.80;38.60;;;;;;5028006;28;20067;-71
2021/05/26 03:53:47;;;;;;;0.43;0.25;;;21.80;37.90;;;;;;5025259;28;20034;-71
2021/05/26 03:56:14;;;;;;;2.45;0.73;;;21.90;36.80;;;;;;5028030;28;20025;-65
2021/05/26 03:58:41;;;;;;;4.63;1.10;;;21.90;36.60;;;;;;5027814;28;20057;-71
2021/05/26 04:01:09;;;;;;;5.72;1.02;;;22.00;38.20;;;;;;5023476;28;20025;-66
2021/05/26 04:03:36;;;;;;;2.58;0.60;;;22.10;37.00;;;;;;5027580;28;20022;-64
2021/05/26 04:06:03;;;;;;;1.42;0.38;;;21.90;36.40;;;;;;5030298;28;20056;-65
2021/05/26 04:08:31;;;;;;;1.27;0.70;;;21.90;36.30;;;;;;5025664;28;20032;-64
2021/05/26 04:10:58;;;;;;;5.78;0.73;;;21.90;36.50;;;;;;5026590;28;20021;-72
2021/05/26 04:13:25;;;;;;;3.30;1.48;;;22.00;37.50;;;;;;5027274;28;20104;-65
2021/05/26 04:15:52;;;;;;;11.60;1.25;;;22.00;36.20;;;;;;5027179;28;20053;-68
2021/05/26 04:18:19;;;;;;;6.72;1.02;;;22.00;34.60;;;;;;5026787;28;20116;-68
2021/05/26 04:20:46;;;;;;;9.55;1.13;;;22.00;35.20;;;;;;5031461;28;20769;-66
2021/05/26 04:23:13;;;;;;;13.68;2.10;;;21.80;35.00;;;;;;5031219;28;20438;-67
2021/05/26 04:25:40;;;;;;;18.00;2.35;;;21.90;35.90;;;;;;5031612;28;20022;-72
2021/05/26 04:28:08;;;;;;;5.57;1.40;;;21.90;35.00;;;;;;5030959;28;20061;-67
2021/05/26 04:30:35;;;;;;;7.72;0.80;;;21.80;34.80;;;;;;5029610;28;20013;-72
2021/05/26 04:33:02;;;;;;;7.75;1.48;;;21.60;34.00;;;;;;5031480;28;20448;-73
2021/05/26 04:35:29;;;;;;;5.50;1.00;;;21.60;34.90;;;;;;5028459;28;20056;-67
2021/05/26 04:37:56;;;;;;;10.15;1.33;;;21.60;34.70;;;;;;5031353;28;20053;-72
2021/05/26 04:40:26;;;;;;;1.10;0.28;;;21.60;36.10;;;;;;5031253;28;20029;-71
2021/05/26 04:42:53;;;;;;;1.15;0.40;;;21.80;35.00;;;;;;5030735;28;20400;-66
2021/05/26 04:45:20;;;;;;;0.43;0.30;;;21.90;35.80;;;;;;5031121;28;20028;-66
2021/05/26 04:47:47;;;;;;;2.03;0.98;;;22.00;35.30;;;;;;5029724;28;20033;-73
2021/05/26 04:50:14;;;;;;;3.38;1.00;;;22.00;34.80;;;;;;5031341;28;20021;-71
2021/05/26 04:52:41;;;;;;;0.85;0.45;;;21.90;35.90;;;;;;5031025;28;20036;-70
2021/05/26 04:55:09;;;;;;;1.48;0.55;;;21.90;36.20;;;;;;5028966;28;20028;-66
2021/05/26 04:57:36;;;;;;;4.45;1.20;;;21.80;35.20;;;;;;5030283;28;20029;-68
2021/05/26 05:00:05;;;;;;;6.78;0.80;;;21.80;36.60;;;;;;5030819;28;20029;-66
2021/05/26 05:02:32;;;;;;;4.03;1.02;;;21.70;37.30;;;;;;5028591;28;20029;-71
2021/05/26 05:05:00;;;;;;;4.82;1.10;;;21.70;37.50;;;;;;5030219;28;20049;-66
2021/05/26 05:07:27;;;;;;;4.15;0.88;;;21.90;36.60;;;;;;5029289;28;20033;-69
2021/05/26 05:09:54;;;;;;;4.78;0.68;;;22.00;37.30;;;;;;5030394;28;20017;-66
2021/05/26 05:12:21;;;;;;;0.98;0.60;;;22.00;36.70;;;;;;5031789;28;20096;-68
2021/05/26 05:14:48;;;;;;;2.78;0.70;;;22.00;36.10;;;;;;5030672;28;20073;-67
2021/05/26 05:17:15;;;;;;;6.47;0.95;;;21.90;37.00;;;;;;5030757;28;20111;-74
2021/05/26 05:19:42;;;;;;;2.90;0.55;;;21.80;36.70;;;;;;5031631;28;20434;-72
2021/05/26 05:22:09;;;;;;;2.35;1.00;;;21.70;37.20;;;;;;5029364;28;20021;-70
2021/05/26 05:24:36;;;;;;;3.95;0.88;;;21.80;37.00;;;;;;5025638;28;20481;-65
2021/05/26 05:27:03;;;;;;;2.53;0.80;;;21.90;36.70;;;;;;5021154;28;20095;-71
2021/05/26 05:29:30;;;;;;;1.25;0.82;;;22.00;36.90;;;;;;5029781;28;20028;-70
2021/05/26 05:31:57;;;;;;;1.23;0.47;;;22.00;37.40;;;;;;5030370;28;20045;-72
2021/05/26 05:34:24;;;;;;;5.25;0.70;;;21.90;36.80;;;;;;5030960;28;20631;-76
2021/05/26 05:36:51;;;;;;;2.45;0.93;;;21.60;37.30;;;;;;5031071;28;20022;-65
2021/05/26 05:39:18;;;;;;;3.75;1.00;;;21.70;37.30;;;;;;5030476;28;20014;-64
2021/05/26 05:41:45;;;;;;;5.38;0.98;;;21.50;38.00;;;;;;5031485;28;20048;-72
2021/05/26 05:44:12;;;;;;;3.70;0.80;;;21.60;38.10;;;;;;5028664;28;20034;-74
2021/05/26 05:46:39;;;;;;;3.60;0.70;;;21.40;37.60;;;;;;5028205;28;20501;-69
2021/05/26 05:49:06;;;;;;;5.28;1.08;;;21.30;37.30;;;;;;5032548;28;20028;-67
2021/05/26 05:51:33;;;;;;;2.42;0.90;;;20.80;39.40;;;;;;5030635;28;20013;-69
2021/05/26 05:54:00;;;;;;;2.20;0.80;;;20.40;39.80;;;;;;5029524;28;20025;-68
2021/05/26 05:56:27;;;;;;;2.63;1.00;;;20.00;40.70;;;;;;5029516;28;20026;-71
2021/05/26 05:58:54;;;;;;;2.92;1.10;;;19.80;41.30;;;;;;5029900;28;20486;-66
2021/05/26 06:01:21;;;;;;;1.35;0.77;;;19.60;41.70;;;;;;5028253;28;20386;-67
2021/05/26 06:03:48;;;;;;;3.95;1.13;;;19.50;42.10;;;;;;5029022;28;20520;-71
2021/05/26 06:06:18;;;;;;;3.45;0.98;;;19.40;42.50;;;;;;5029354;28;20386;-71
2021/05/26 06:08:48;;;;;;;2.95;0.85;;;19.30;42.70;;;;;;5030051;28;20507;-68
2021/05/26 06:11:15;;;;;;;4.35;0.52;;;19.20;42.50;;;;;;5027474;28;20032;-73
2021/05/26 06:13:46;;;;;;;3.03;0.70;;;19.10;43.10;;;;;;5029370;28;20144;-66
2021/05/26 06:16:13;;;;;;;5.50;1.13;;;19.10;43.50;;;;;;5029043;28;20021;-67
2021/05/26 06:18:40;;;;;;;5.50;1.13;;;19.00;43.40;;;;;;5028204;28;20029;-70
2021/05/26 06:21:07;;;;;;;5.80;1.25;;;19.00;43.30;;;;;;5029111;28;20023;-69
2021/05/26 06:23:35;;;;;;;4.07;1.02;;;19.00;43.60;;;;;;5029048;28;20144;-67
2021/05/26 06:26:02;;;;;;;3.78;1.23;;;19.00;44.40;;;;;;5026091;28;20037;-65
2021/05/26 06:28:29;;;;;;;7.72;1.40;;;19.00;43.60;;;;;;5027201;28;20025;-70
2021/05/26 06:30:57;;;;;;;8.25;1.80;;;19.10;43.50;;;;;;5029218;28;20022;-68
2021/05/26 06:33:24;;;;;;;6.05;1.40;;;19.20;43.70;;;;;;5028755;28;20036;-69
2021/05/26 06:35:52;;;;;;;4.32;1.88;;;19.20;43.30;;;;;;5028349;28;20375;-67
2021/05/26 06:38:19;;;;;;;10.75;2.17;;;19.20;43.20;;;;;;5028320;28;20025;-72
2021/05/26 06:40:46;;;;;;;10.07;2.30;;;19.00;43.50;;;;;;5029386;28;20052;-72
2021/05/26 06:43:13;;;;;;;10.43;2.15;;;18.80;43.90;;;;;;5027583;28;20034;-66
2021/05/26 06:45:40;;;;;;;9.98;2.08;;;18.40;44.90;;;;;;5028287;28;20029;-67
2021/05/26 06:48:07;;;;;;;11.32;2.22;;;18.20;45.30;;;;;;5027723;28;20053;-66
2021/05/26 06:50:34;;;;;;;8.60;1.52;;;18.00;45.60;;;;;;5028191;28;20028;-67
2021/05/26 06:53:01;;;;;;;5.70;1.50;;;17.90;46.40;;;;;;5028888;28;20112;-66
2021/05/26 06:55:28;;;;;;;8.20;2.05;;;17.70;47.00;;;;;;5028618;28;20021;-65
2021/05/26 06:57:55;;;;;;;9.85;1.45;;;17.60;47.10;;;;;;5027462;28;20636;-64
2021/05/26 07:00:22;;;;;;;9.13;2.22;;;17.40;47.90;;;;;;5025771;28;20030;-72
2021/05/26 07:02:49;;;;;;;3.80;1.15;;;17.30;48.40;;;;;;5027809;28;20025;-65
2021/05/26 07:05:17;;;;;;;5.30;1.27;;;17.10;49.10;;;;;;5025436;28;20080;-66
2021/05/26 07:07:44;;;;;;;2.70;0.98;;;17.00;49.30;;;;;;5027844;28;20029;-72
2021/05/26 07:10:11;;;;;;;4.70;1.70;;;16.90;49.20;;;;;;4327739;28;10000703;-72
2021/05/26 07:12:38;;;;;;;3.30;0.77;;;16.80;49.20;;;;;;5023595;28;20020;-68
2021/05/26 07:15:06;;;;;;;2.60;0.88;;;16.70;49.50;;;;;;5022229;28;20025;-69
2021/05/26 07:17:33;;;;;;;3.00;0.90;;;16.50;50.20;;;;;;5023041;28;20037;-68
2021/05/26 07:20:01;;;;;;;5.53;1.13;;;16.60;49.20;;;;;;5025111;28;20303;-65
2021/05/26 07:22:28;;;;;;;5.75;1.15;;;16.60;49.70;;;;;;5023648;28;20026;-71
2021/05/26 07:24:55;;;;;;;8.30;1.85;;;16.40;50.40;;;;;;5024873;28;20021;-65
2021/05/26 07:27:22;;;;;;;10.98;2.05;;;16.20;51.30;;;;;;5020575;28;20648;-64
2021/05/26 07:29:49;;;;;;;6.45;1.80;;;16.00;52.60;;;;;;5024553;28;20017;-68
2021/05/26 07:32:16;;;;;;;12.40;2.30;;;15.80;52.90;;;;;;5024023;28;20386;-71
2021/05/26 07:34:43;;;;;;;10.73;2.13;;;15.70;53.50;;;;;;5025042;28;20084;-71
2021/05/26 07:37:11;;;;;;;8.02;1.80;;;15.80;52.30;;;;;;5021055;28;20022;-64
2021/05/26 07:39:38;;;;;;;7.43;2.95;;;15.90;52.30;;;;;;5023457;28;20021;-65
2021/05/26 07:42:07;;;;;;;7.25;3.05;;;15.90;52.20;;;;;;5024013;28;20107;-64
2021/05/26 07:44:35;;;;;;;5.60;2.60;;;15.90;52.00;;;;;;5024070;28;20021;-72
2021/05/26 07:47:02;;;;;;;10.40;2.70;;;15.80;52.00;;;;;;5024985;28;20028;-70
2021/05/26 07:49:29;;;;;;;4.60;1.90;;;15.80;52.10;;;;;;5024148;28;20021;-65
2021/05/26 07:52:02;;;;;;;10.02;2.28;;;15.80;51.90;;;;;;5024859;28;20028;-67
2021/05/26 07:54:30;;;;;;;8.95;2.05;;;15.70;52.60;;;;;;5024267;28;20036;-65
2021/05/26 07:56:58;;;;;;;6.32;1.50;;;15.60;52.60;;;;;;5024016;28;20013;-70
2021/05/26 07:59:26;;;;;;;6.40;1.10;;;15.60;52.80;;;;;;5024690;28;20025;-68
2021/05/26 08:01:53;;;;;;;6.95;1.52;;;15.60;52.10;;;;;;5020932;28;20854;-71
2021/05/26 08:04:21;;;;;;;7.65;1.40;;;15.50;52.50;;;;;;5024098;28;20358;-74
2021/05/26 08:06:48;;;;;;;5.18;1.50;;;15.40;52.70;;;;;;5024949;28;20056;-66
2021/05/26 08:09:15;;;;;;;4.20;0.98;;;15.30;52.90;;;;;;5023737;28;20030;-70
2021/05/26 08:11:42;;;;;;;7.13;1.35;;;15.30;52.80;;;;;;5024333;28;20555;-72
2021/05/26 08:14:09;;;;;;;2.70;1.10;;;15.30;53.30;;;;;;5024168;28;20025;-71
2021/05/26 08:16:36;;;;;;;3.88;1.33;;;15.20;53.20;;;;;;5024146;28;20017;-72
2021/05/26 08:19:03;;;;;;;4.72;1.30;;;15.20;53.40;;;;;;5024740;28;20056;-66
2021/05/26 08:21:30;;;;;;;5.13;1.45;;;15.20;53.20;;;;;;5023206;28;20026;-67
2021/05/26 08:23:57;;;;;;;3.53;1.38;;;15.30;52.80;;;;;;5026541;28;20080;-65
2021/05/26 08:26:24;;;;;;;2.47;0.93;;;15.40;52.70;;;;;;5023371;28;20449;-71
2021/05/26 08:28:53;;;;;;;6.07;1.10;;;15.30;52.20;;;;;;5024465;28;20761;-71
2021/05/26 08:31:21;;;;;;;2.78;1.55;;;15.30;52.30;;;;;;5023186;28;20296;-67
2021/05/26 08:33:48;;;;;;;4.60;1.35;;;15.30;52.70;;;;;;5021358;28;20045;-70
2021/05/26 08:36:15;;;;;;;3.08;1.00;;;15.10;53.60;;;;;;5024021;28;20478;-71
2021/05/26 08:38:45;;;;;;;2.72;0.95;;;15.00;53.70;;;;;;5022176;28;20029;-66
2021/05/26 08:41:12;;;;;;;2.10;1.13;;;14.90;53.50;;;;;;5021606;28;20549;-67
2021/05/26 08:43:41;;;;;;;5.45;1.50;;;14.80;54.30;;;;;;5020752;28;20363;-71
2021/05/26 08:46:09;;;;;;;4.95;1.15;;;14.70;54.60;;;;;;5022078;28;20535;-71
2021/05/26 08:48:37;;;;;;;3.03;1.33;;;14.70;54.50;;;;;;5021463;28;20040;-69
2021/05/26 08:51:10;;;;;;;6.43;1.88;;;14.70;54.70;;;;;;5023403;28;20076;-67
2021/05/26 08:53:38;;;;;;;9.57;1.27;;;14.80;54.70;;;;;;5022124;28;20021;-71
2021/05/26 08:56:05;;;;;;;6.85;1.00;;;14.80;54.70;;;;;;5022957;28;20060;-66
2021/05/26 08:58:43;;;;;;;6.68;1.45;;;14.90;54.40;;;;;;5020639;28;20025;-67
2021/05/26 09:01:10;;;;;;;7.70;1.67;;;15.00;53.70;;;;;;5020941;28;20397;-67
2021/05/26 09:03:37;;;;;;;3.42;0.82;;;15.00;54.20;;;;;;5020670;28;20063;-71
2021/05/26 09:06:11;;;;;;;4.75;1.38;;;14.90;53.80;;;;;;5020341;28;20076;-69
2021/05/26 09:08:50;;;;;;;7.22;1.50;;;14.90;54.30;;;;;;5016176;28;20040;-69
2021/05/26 09:11:30;;;;;;;7.20;1.30;;;14.90;54.10;;;;;;5019852;28;20084;-68
2021/05/26 09:13:57;;;;;;;6.45;0.90;;;14.80;54.40;;;;;;5021112;28;20126;-71
2021/05/26 09:16:24;;;;;;;8.48;2.70;;;14.80;53.20;;;;;;5015210;28;20021;-71
2021/05/26 09:19:09;;;;;;;7.32;1.52;;;14.80;53.50;;;;;;5019121;28;20398;-68
2021/05/26 09:21:40;;;;;;;3.72;0.95;;;14.90;52.70;;;;;;5023252;28;20119;-63
2021/05/26 09:24:22;;;;;;;5.00;1.42;;;15.00;52.40;;;;;;5022527;28;20037;-71
2021/05/26 09:27:01;;;;;;;4.70;1.10;;;15.10;52.10;;;;;;5022913;28;20029;-69
2021/05/26 09:29:36;;;;;;;6.10;1.10;;;15.00;51.90;;;;;;5023486;28;20044;-70
2021/05/26 09:32:27;;;;;;;6.63;1.52;;;15.00;51.70;;;;;;5026230;28;20411;-71
2021/05/26 09:35:00;;;;;;;2.95;1.10;;;15.00;50.90;;;;;;5021392;28;20552;-69
2021/05/26 09:37:29;;;;;;;4.68;0.80;;;15.00;51.10;;;;;;5026846;28;20025;-74
2021/05/26 09:40:14;;;;;;;5.70;1.30;;;15.00;50.90;;;;;;5022837;28;20393;-78
2021/05/26 09:42:46;;;;;;;6.88;1.30;;;15.00;51.00;;;;;;5023412;28;20031;-65
2021/05/26 09:45:30;;;;;;;4.30;1.27;;;14.90;51.10;;;;;;5022731;28;20124;-71
2021/05/26 09:48:00;;;;;;;3.50;1.10;;;14.80;51.60;;;;;;5021824;28;20095;-71
2021/05/26 09:50:35;;;;;;;2.38;1.00;;;14.80;51.70;;;;;;5011277;28;21355;-75
2021/05/26 09:53:18;;;;;;;2.90;0.68;;;14.80;51.80;;;;;;4668665;28;10000987;-72
2021/05/26 09:55:49;;;;;;;5.90;1.33;;;14.80;51.90;;;;;;5021075;28;20133;-71
2021/05/26 09:58:17;;;;;;;5.57;1.75;;;14.70;52.10;;;;;;5019900;28;20037;-68
2021/05/26 10:00:46;;;;;;;6.68;1.40;;;14.70;52.30;;;;;;5020086;28;20049;-71
2021/05/26 10:03:14;;;;;;;2.25;1.13;;;14.50;52.70;;;;;;5022126;28;20383;-71
2021/05/26 10:05:41;;;;;;;2.72;1.08;;;14.50;52.80;;;;;;5022829;28;20484;-72
2021/05/26 10:08:14;;;;;;;2.70;1.10;;;14.60;52.10;;;;;;4674826;28;10000402;-69
2021/05/26 10:10:46;;;;;;;6.88;1.55;;;14.60;52.50;;;;;;5017549;28;20037;-69
2021/05/26 10:13:14;;;;;;;9.23;1.77;;;14.60;52.10;;;;;;5022404;28;20513;-67
2021/05/26 10:15:45;;;;;;;7.13;1.23;;;14.50;52.50;;;;;;5024087;28;20566;-67
2021/05/26 10:18:12;;;;;;;6.15;1.33;;;14.40;52.80;;;;;;5022699;28;20596;-69
2021/05/26 10:20:43;;;;;;;2.25;0.70;;;14.40;53.10;;;;;;5022740;28;20085;-69
2021/05/26 10:23:19;;;;;;;3.80;1.38;;;14.40;52.80;;;;;;5022766;28;20551;-71
2021/05/26 10:25:48;;;;;;;4.20;1.13;;;14.40;53.00;;;;;;5022132;28;20289;-68
2021/05/26 10:28:33;;;;;;;3.55;1.40;;;14.40;53.20;;;;;;5024448;28;20026;-68
2021/05/26 10:31:05;;;;;;;6.38;1.83;;;14.30;53.20;;;;;;5023069;28;20112;-68
2021/05/26 10:33:52;;;;;;;7.40;1.20;;;14.30;53.40;;;;;;5023364;28;20120;-71
2021/05/26 10:36:19;;;;;;;7.47;1.42;;;14.40;53.30;;;;;;5022621;28;20171;-68
2021/05/26 10:39:05;;;;;;;6.78;1.10;;;14.40;52.80;;;;;;5011357;28;20701;-69
2021/05/26 10:41:51;;;;;;;9.88;1.63;;;14.50;53.10;;;;;;5019244;28;20029;-74
2021/05/26 10:44:19;;;;;;;6.25;0.90;;;14.50;52.90;;;;;;5021663;28;20056;-68
2021/05/26 10:46:49;;;;;;;6.88;1.48;;;14.50;53.10;;;;;;5020813;28;20036;-69
2021/05/26 10:49:16;;;;;;;5.63;0.75;;;14.50;53.20;;;;;;5022356;28;20340;-71
2021/05/26 10:51:52;;;;;;;8.48;1.35;;;14.40;54.00;;;;;;5021375;28;20414;-72
2021/05/26 10:54:43;;;;;;;8.70;1.15;;;14.30;53.80;;;;;;5022344;28;20100;-67
2021/05/26 10:57:10;;;;;;;5.30;1.20;;;14.40;53.70;;;;;;5020213;28;20033;-73
2021/05/26 10:59:39;;;;;;;4.28;1.27;;;14.30;53.90;;;;;;5022057;28;20595;-68
2021/05/26 11:02:10;;;;;;;3.53;1.35;;;14.30;54.00;;;;;;5018031;28;20108;-67
2021/05/26 11:04:39;;;;;;;4.63;0.93;;;14.30;54.30;;;;;;5023296;28;20048;-74
2021/05/26 11:07:29;;;;;;;4.25;1.75;;;14.30;54.40;;;;;;5022583;28;20068;-64
2021/05/26 11:10:07;;;;;;;6.53;1.40;;;14.30;54.40;;;;;;5018999;28;20037;-67
2021/05/26 11:12:52;;;;;;;4.20;1.30;;;14.30;55.00;;;;;;5023448;28;20116;-64
2021/05/26 11:15:40;;;;;;;10.10;3.03;;;14.20;55.00;;;;;;5024675;28;20121;-65
2021/05/26 11:20:44;;;;;;;6.72;1.50;;;14.10;55.80;;;;;;5021911;28;20025;-65
2021/05/26 11:23:13;;;;;;;7.70;1.63;;;14.00;56.00;;;;;;5025299;28;20041;-65
2021/05/26 11:25:50;;;;;;;6.25;1.70;;;14.00;56.30;;;;;;5025675;28;20104;-68
2021/05/26 11:28:38;;;;;;;3.83;1.15;;;14.00;56.10;;;;;;5023478;28;20116;-66
2021/05/26 11:31:07;;;;;;;5.50;1.20;;;14.00;56.10;;;;;;5025557;28;20017;-67
2021/05/26 11:33:35;;;;;;;8.55;1.63;;;14.00;56.30;;;;;;5024096;28;20064;-69
2021/05/26 11:36:05;;;;;;;4.80;1.40;;;14.00;57.00;;;;;;5031667;28;20109;-69
2021/05/26 11:38:33;;;;;;;6.35;1.63;;;14.00;56.30;;;;;;5024998;28;20064;-70
2021/05/26 11:41:02;;;;;;;6.80;1.20;;;13.90;56.70;;;;;;5024439;28;20103;-67
2021/05/26 11:43:33;;;;;;;6.75;1.63;;;13.80;56.90;;;;;;5027558;28;20036;-65
2021/05/26 11:46:10;;;;;;;5.68;1.23;;;13.70;57.30;;;;;;5026140;28;20025;-69
2021/05/26 11:48:38;;;;;;;6.43;1.50;;;13.70;57.60;;;;;;5027218;28;20035;-65
2021/05/26 11:51:05;;;;;;;12.93;2.17;;;13.60;57.80;;;;;;5025935;28;20056;-68
2021/05/26 11:53:32;;;;;;;7.15;1.63;;;13.60;57.70;;;;;;5024980;28;20028;-66
2021/05/26 11:56:01;;;;;;;5.53;1.48;;;13.50;58.30;;;;;;5024748;28;20026;-68
2021/05/26 11:58:37;;;;;;;6.75;1.40;;;13.40;58.40;;;;;;5024681;28;20060;-73
2021/05/26 12:01:16;;;;;;;6.57;1.35;;;13.30;58.80;;;;;;5021294;28;20057;-72
2021/05/26 12:03:43;;;;;;;5.55;1.10;;;13.10;59.50;;;;;;5023926;28;20491;-67
2021/05/26 12:06:10;;;;;;;5.78;1.58;;;13.10;59.50;;;;;;5024463;28;20049;-69
2021/05/26 12:08:42;;;;;;;12.85;1.75;;;13.10;59.50;;;;;;5024315;28;20517;-68
2021/05/26 12:11:16;;;;;;;7.93;1.20;;;13.10;59.50;;;;;;5024532;28;20389;-68
2021/05/26 12:13:48;;;;;;;6.13;1.73;;;13.00;59.80;;;;;;5032060;28;20060;-66
2021/05/26 12:16:20;;;;;;;10.55;1.50;;;13.00;60.10;;;;;;5024646;28;20029;-68
2021/05/26 12:19:00;;;;;;;8.68;1.25;;;13.00;60.10;;;;;;5024526;28;20108;-69
2021/05/26 12:21:30;;;;;;;8.70;1.30;;;13.10;59.90;;;;;;5023127;28;20033;-69
2021/05/26 12:24:07;;;;;;;6.68;2.03;;;13.10;60.20;;;;;;5024824;28;20025;-68
2021/05/26 12:26:37;;;;;;;6.35;1.23;;;13.10;60.50;;;;;;5023822;28;20250;-67
2021/05/26 12:29:10;;;;;;;7.90;1.75;;;13.00;60.60;;;;;;5024339;28;20037;-69
2021/05/26 12:31:41;;;;;;;6.10;1.30;;;13.00;60.90;;;;;;5024664;28;20097;-67
2021/05/26 12:34:15;;;;;;;6.65;1.40;;;13.00;60.90;;;;;;5026193;28;20036;-71
2021/05/26 12:36:50;;;;;;;8.48;1.92;;;13.00;61.20;;;;;;5024655;28;20414;-72
2021/05/26 12:39:17;;;;;;;4.50;1.88;;;12.90;61.70;;;;;;5022793;28;20390;-70
2021/05/26 12:41:48;;;;;;;8.20;2.13;;;12.90;62.00;;;;;;5025295;28;20527;-68
2021/05/26 12:44:15;;;;;;;9.32;2.60;;;12.90;62.20;;;;;;5026835;28;20061;-68
2021/05/26 12:46:51;;;;;;;7.18;1.83;;;12.80;62.40;;;;;;5030000;28;20040;-71
2021/05/26 12:52:11;;;;;;;9.13;2.78;;;12.70;62.40;;;;;;5027367;28;20668;-68
2021/05/26 12:54:46;;;;;;;10.57;2.20;;;12.70;62.80;;;;;;5026285;28;20021;-70
2021/05/26 12:57:18;;;;;;;12.32;1.98;;;12.70;62.70;;;;;;5029959;28;20029;-70
2021/05/26 12:59:51;;;;;;;5.93;1.83;;;12.70;62.70;;;;;;5027809;28;20092;-69
2021/05/26 13:02:18;;;;;;;7.60;2.22;;;12.70;62.60;;;;;;5029904;28;20040;-69
2021/05/26 13:04:49;;;;;;;7.43;1.73;;;12.60;63.20;;;;;;5035342;23;20076;-68